Time;durP1;ratioP1;P1;durP2;ratioP2;P2;SDS_P1;SDS_P2;PMS_P1;PMS_P2;Temp;Humidity;BMP_temperature;BMP_pressure;BME280_temperature;BME280_humidity;BME280_pressure;Samples;Min_cycle;Max_cycle;Signal;HPM_P1;HPM_P2
2023/09/24 00:00:13;;;;;;;;;;;;;;;18.12;75.15;100339.88;5431532;32;35339;-78
2023/09/24 00:03:15;;;;;;;;;;;;;;;18.35;75.24;100343.56;5430892;32;34208;-78
2023/09/24 00:06:18;;;;;;;;;;;;;;;18.94;71.92;100342.81;5429910;32;34211;-78
2023/09/24 00:09:20;;;;;;;;;;;;;;;18.72;72.09;100340.88;5432537;32;35330;-78
2023/09/24 00:12:23;;;;;;;;;;;;;;;18.13;76.05;100336.25;5429730;32;34874;-79
2023/09/24 00:15:27;;;;;;;;;;;;;;;17.86;78.11;100339.03;5432139;32;35775;-79
2023/09/24 00:18:29;;;;;;;;;;;;;;;17.73;77.91;100345.31;5430065;32;34502;-79
2023/09/24 00:21:31;;;;;;;;;;;;;;;18.42;75.94;100330.66;5430135;32;34179;-78
2023/09/24 00:24:34;;;;;;;;;;;;;;;17.96;76.40;100317.97;5430810;32;36443;-79
2023/09/24 00:27:36;;;;;;;;;;;;;;;18.33;75.06;100313.53;5429529;32;34279;-79
2023/09/24 00:30:41;;;;;;;;;;;;;;;18.16;77.02;100329.00;5430719;32;34315;-79
2023/09/24 00:33:43;;;;;;;;;;;;;;;18.37;75.82;100338.97;5430542;32;35480;-79
2023/09/24 00:36:46;;;;;;;;;;;;;;;18.42;75.39;100343.97;5417418;32;33836;-79
2023/09/24 00:39:48;;;;;;;;;;;;;;;17.86;78.70;100364.78;5429656;32;34101;-78
2023/09/24 00:42:50;;;;;;;;;;;;;;;18.44;75.49;100355.34;5427880;32;35514;-78
2023/09/24 00:45:53;;;;;;;;;;;;;;;18.45;75.19;100358.84;5430591;32;34187;-78
2023/09/24 00:48:55;;;;;;;;;;;;;;;18.65;74.46;100364.41;5430119;32;35713;-77
2023/09/24 00:51:58;;;;;;;;;;;;;;;18.95;72.99;100373.81;5430401;32;34523;-78
2023/09/24 00:55:00;;;;;;;;;;;;;;;18.88;72.32;100372.56;5411463;32;34625;-78
2023/09/24 00:58:03;;;;;;;;;;;;;;;18.51;74.54;100366.37;5417110;32;33965;-78
2023/09/24 01:01:06;;;;;;;;;;;;;;;18.69;74.51;100372.22;5408748;32;34135;-79
2023/09/24 01:04:11;;;;;;;;;;;;;;;18.31;76.18;100375.81;5430509;32;35225;-79
2023/09/24 01:07:14;;;;;;;;;;;;;;;18.50;75.05;100372.66;5404118;32;33971;-78
2023/09/24 01:10:16;;;;;;;;;;;;;;;18.60;75.05;100374.53;5429062;32;34190;-79
2023/09/24 01:13:23;;;;;;;;;;;;;;;18.72;74.67;100362.19;5417614;32;34090;-78
2023/09/24 01:16:25;;;;;;;;;;;;;;;18.98;72.53;100359.41;5414653;32;34554;-78
2023/09/24 01:19:29;;;;;;;;;;;;;;;18.64;73.61;100352.06;5414651;32;35283;-77
2023/09/24 01:22:32;;;;;;;;;;;;;;;18.47;74.34;100354.25;5429337;32;36079;-79
2023/09/24 01:25:37;;;;;;;;;;;;;;;18.47;73.56;100367.56;5427430;32;33976;-78
2023/09/24 01:28:39;;;;;;;;;;;;;;;18.99;70.77;100364.59;5417896;32;34229;-81
2023/09/24 01:31:42;;;;;;;;;;;;;;;18.70;73.91;100364.12;5428544;32;34352;-80
2023/09/24 01:34:45;;;;;;;;;;;;;;;18.49;74.08;100366.50;5429463;32;35511;-77
2023/09/24 01:37:47;;;;;;;;;;;;;;;18.23;74.94;100370.19;5429457;32;34163;-79
2023/09/24 01:40:51;;;;;;;;;;;;;;;18.57;73.33;100382.75;5430183;32;33963;-82
2023/09/24 01:43:53;;;;;;;;;;;;;;;18.07;75.71;100373.06;5429718;32;35564;-79
2023/09/24 01:46:56;;;;;;;;;;;;;;;17.76;77.35;100374.34;5404248;32;34105;-80
2023/09/24 01:49:58;;;;;;;;;;;;;;;17.92;74.76;100368.81;5430286;32;35394;-77
2023/09/24 01:53:00;;;;;;;;;;;;;;;17.94;75.66;100373.06;5427830;32;35056;-78
2023/09/24 01:56:07;;;;;;;;;;;;;;;18.09;76.51;100361.34;5429857;32;35229;-78
2023/09/24 01:59:10;;;;;;;;;;;;;;;17.52;78.12;100376.88;5429009;32;35490;-78
2023/09/24 02:02:13;;;;;;;;;;;;;;;17.85;77.33;100389.69;5407455;32;34418;-78
2023/09/24 02:05:15;;;;;;;;;;;;;;;17.76;77.54;100391.12;5429714;32;34268;-78
2023/09/24 02:08:17;;;;;;;;;;;;;;;17.44;80.38;100379.16;5428679;32;35609;-80
2023/09/24 02:11:20;;;;;;;;;;;;;;;18.12;76.56;100366.47;5432328;32;34109;-79
2023/09/24 02:14:22;;;;;;;;;;;;;;;17.87;79.07;100369.13;5431113;32;35428;-78
2023/09/24 02:17:24;;;;;;;;;;;;;;;17.47;81.41;100363.03;5432901;32;33900;-78
2023/09/24 02:20:32;;;;;;;;;;;;;;;17.96;79.39;100380.94;5430855;32;34340;-79
2023/09/24 02:23:34;;;;;;;;;;;;;;;17.87;80.94;100391.25;5431825;32;34250;-82
2023/09/24 02:26:37;;;;;;;;;;;;;;;17.31;83.42;100387.97;5412469;32;34299;-78
2023/09/24 02:29:39;;;;;;;;;;;;;;;17.56;80.95;100378.34;5430639;32;34526;-78
2023/09/24 02:32:42;;;;;;;;;;;;;;;17.63;80.68;100370.78;5432010;32;35047;-79
2023/09/24 02:35:44;;;;;;;;;;;;;;;17.27;81.87;100365.22;5416069;32;35234;-79
2023/09/24 02:38:47;;;;;;;;;;;;;;;17.10;83.84;100359.34;5433220;32;35253;-80
2023/09/24 02:41:52;;;;;;;;;;;;;;;17.01;86.23;100361.66;5412935;32;35367;-79
2023/09/24 02:44:54;;;;;;;;;;;;;;;17.18;83.33;100347.25;5430485;32;33959;-78
2023/09/24 02:47:57;;;;;;;;;;;;;;;17.53;81.26;100365.28;5432696;32;34311;-79
2023/09/24 02:51:08;;;;;;;;;;;;;;;17.29;81.13;100368.63;5429575;32;34207;-80
2023/09/24 02:54:10;;;;;;;;;;;;;;;17.37;83.04;100362.78;5413173;32;35469;-78
2023/09/24 02:57:13;;;;;;;;;;;;;;;17.70;79.94;100366.75;5430260;32;35349;-78
2023/09/24 03:00:19;;;;;;;;;;;;;;;17.43;82.70;100374.81;5433045;32;34325;-79
2023/09/24 03:03:21;;;;;;;;;;;;;;;17.23;83.91;100369.03;5431112;32;34174;-79
2023/09/24 03:06:26;;;;;;;;;;;;;;;16.86;85.25;100361.81;5416364;32;34072;-79
2023/09/24 03:09:30;;;;;;;;;;;;;;;16.86;85.54;100360.00;5432562;32;34319;-80
2023/09/24 03:12:33;;;;;;;;;;;;;;;16.78;83.90;100352.53;5416219;32;35648;-79
2023/09/24 03:15:37;;;;;;;;;;;;;;;17.16;84.02;100350.97;5431993;32;34682;-79
2023/09/24 03:18:39;;;;;;;;;;;;;;;17.20;84.35;100332.06;5430801;32;34275;-79
2023/09/24 03:21:41;;;;;;;;;;;;;;;17.40;82.05;100340.50;5431437;32;35490;-79
2023/09/24 03:24:43;;;;;;;;;;;;;;;17.11;83.79;100334.47;5431321;32;33833;-79
2023/09/24 03:27:46;;;;;;;;;;;;;;;17.08;83.57;100345.31;5430952;32;34133;-81
2023/09/24 03:30:48;;;;;;;;;;;;;;;17.16;83.78;100348.31;5418482;32;34511;-79
2023/09/24 03:33:51;;;;;;;;;;;;;;;16.94;84.13;100352.41;5431952;32;35645;-81
2023/09/24 03:36:54;;;;;;;;;;;;;;;17.41;81.35;100353.66;5430439;32;35051;-81
2023/09/24 03:39:56;;;;;;;;;;;;;;;16.84;86.27;100364.56;5429340;32;35169;-79
2023/09/24 03:42:59;;;;;;;;;;;;;;;17.10;85.12;100370.81;5431599;32;35254;-80
2023/09/24 03:46:01;;;;;;;;;;;;;;;17.19;83.07;100364.03;5431385;32;36103;-79
2023/09/24 03:49:04;;;;;;;;;;;;;;;17.29;82.57;100365.97;5415583;32;35244;-78
2023/09/24 03:52:06;;;;;;;;;;;;;;;17.76;81.10;100369.88;5430230;32;34758;-78
2023/09/24 03:55:09;;;;;;;;;;;;;;;17.27;82.25;100375.84;5427601;32;35374;-79
2023/09/24 03:58:11;;;;;;;;;;;;;;;17.17;83.22;100374.75;5415941;32;33190;-80
2023/09/24 04:01:14;;;;;;;;;;;;;;;17.50;82.31;100363.66;5429505;32;34070;-80
2023/09/24 04:04:16;;;;;;;;;;;;;;;16.89;85.64;100380.19;5431248;32;34407;-80
2023/09/24 04:07:19;;;;;;;;;;;;;;;16.63;87.20;100381.84;5430979;32;35455;-79
2023/09/24 04:10:22;;;;;;;;;;;;;;;17.21;83.07;100381.59;5429840;32;34247;-80
2023/09/24 04:13:24;;;;;;;;;;;;;;;17.30;82.33;100372.97;5432275;32;34342;-81
2023/09/24 04:16:26;;;;;;;;;;;;;;;16.97;84.63;100383.19;5415576;32;34862;-81
2023/09/24 04:19:32;;;;;;;;;;;;;;;17.05;87.12;100380.88;5431794;32;34091;-79
2023/09/24 04:22:34;;;;;;;;;;;;;;;17.10;84.42;100381.44;5415195;32;34188;-80
2023/09/24 04:25:36;;;;;;;;;;;;;;;17.10;85.88;100386.75;5429676;32;34282;-80
2023/09/24 04:28:38;;;;;;;;;;;;;;;17.30;84.10;100388.91;5432324;32;34143;-80
2023/09/24 04:31:42;;;;;;;;;;;;;;;17.99;81.35;100392.22;5429358;32;34134;-80
2023/09/24 04:34:46;;;;;;;;;;;;;;;17.36;84.39;100386.81;5431320;32;34256;-78
2023/09/24 04:37:49;;;;;;;;;;;;;;;17.51;83.18;100391.06;5424809;32;34407;-79
2023/09/24 04:40:51;;;;;;;;;;;;;;;17.58;82.73;100400.34;5431615;32;34138;-80
2023/09/24 04:43:54;;;;;;;;;;;;;;;17.80;82.89;100403.28;5430452;32;34188;-79
2023/09/24 04:46:56;;;;;;;;;;;;;;;17.87;80.52;100407.22;5408074;32;34694;-79
2023/09/24 04:49:58;;;;;;;;;;;;;;;16.90;86.76;100416.41;5431077;32;34264;-79
2023/09/24 04:53:01;;;;;;;;;;;;;;;16.99;88.63;100415.78;5428392;32;35265;-80
2023/09/24 04:56:06;;;;;;;;;;;;;;;16.93;89.97;100422.34;5431256;32;34295;-79
2023/09/24 04:59:09;;;;;;;;;;;;;;;17.02;87.16;100420.94;5430583;32;34251;-82
2023/09/24 05:02:11;;;;;;;;;;;;;;;17.76;83.51;100419.53;5430988;32;34301;-81
2023/09/24 05:05:15;;;;;;;;;;;;;;;17.68;82.81;100425.34;5430176;32;34219;-79
2023/09/24 05:08:17;;;;;;;;;;;;;;;17.14;87.20;100414.81;5408546;32;34131;-84
2023/09/24 05:11:19;;;;;;;;;;;;;;;17.73;82.97;100423.25;5431867;32;34160;-83
2023/09/24 05:14:22;;;;;;;;;;;;;;;17.37;85.63;100410.63;5406091;32;34227;-82
2023/09/24 05:17:24;;;;;;;;;;;;;;;17.09;86.83;100413.41;5418027;32;34629;-80
2023/09/24 05:20:28;;;;;;;;;;;;;;;17.60;85.27;100404.59;5429791;32;34148;-80
2023/09/24 05:23:31;;;;;;;;;;;;;;;17.51;85.05;100417.66;5412533;32;35346;-80
2023/09/24 05:26:34;;;;;;;;;;;;;;;17.23;86.91;100419.50;5430555;32;34384;-81
2023/09/24 05:29:36;;;;;;;;;;;;;;;17.93;83.12;100424.56;5428252;32;33888;-81
2023/09/24 05:32:38;;;;;;;;;;;;;;;16.85;90.87;100432.63;5430434;32;34470;-80
2023/09/24 05:35:41;;;;;;;;;;;;;;;16.47;93.83;100440.31;5411509;32;35263;-80
2023/09/24 05:38:43;;;;;;;;;;;;;;;17.02;92.29;100443.00;5425067;32;34237;-82
2023/09/24 05:41:45;;;;;;;;;;;;;;;17.13;88.64;100442.31;5426372;32;34060;-83
2023/09/24 05:44:48;;;;;;;;;;;;;;;17.20;89.84;100448.09;5432134;32;34130;-82
2023/09/24 05:47:51;;;;;;;;;;;;;;;17.34;90.42;100456.00;5432828;32;35207;-83
2023/09/24 05:50:53;;;;;;;;;;;;;;;17.70;86.56;100463.28;5430037;32;34221;-83
2023/09/24 05:53:55;;;;;;;;;;;;;;;18.07;84.75;100458.16;5433271;32;34277;-84
2023/09/24 05:56:58;;;;;;;;;;;;;;;18.37;81.99;100455.19;5431622;32;34283;-83
2023/09/24 06:00:04;;;;;;;;;;;;;;;17.92;85.07;100461.88;5433040;32;34189;-83
2023/09/24 06:03:06;;;;;;;;;;;;;;;18.59;80.23;100454.50;5431252;32;34746;-80
2023/09/24 06:06:09;;;;;;;;;;;;;;;16.91;90.88;100464.09;5432435;32;34271;-81
2023/09/24 06:09:11;;;;;;;;;;;;;;;17.17;92.31;100462.41;5419423;32;34155;-83
2023/09/24 06:12:18;;;;;;;;;;;;;;;17.98;87.40;100456.16;5411220;32;34131;-81
2023/09/24 06:15:20;;;;;;;;;;;;;;;17.53;91.47;100464.44;5432584;32;34947;-82
2023/09/24 06:18:23;;;;;;;;;;;;;;;17.69;90.12;100468.72;5431840;32;34131;-80
2023/09/24 06:21:25;;;;;;;;;;;;;;;17.53;90.24;100476.88;5433141;32;33827;-81
2023/09/24 06:24:29;;;;;;;;;;;;;;;17.20;91.86;100483.47;5404772;32;35380;-82
2023/09/24 06:27:31;;;;;;;;;;;;;;;18.07;87.25;100488.28;5431602;32;34678;-82
2023/09/24 06:30:33;;;;;;;;;;;;;;;17.73;87.27;100496.84;5432897;32;35440;-82
2023/09/24 06:33:36;;;;;;;;;;;;;;;17.94;89.12;100497.19;5426878;32;34087;-82
2023/09/24 06:36:38;;;;;;;;;;;;;;;17.82;88.64;100499.72;5419390;32;33997;-83
2023/09/24 06:39:42;;;;;;;;;;;;;;;17.56;92.19;100498.78;5431600;32;34528;-83
2023/09/24 06:42:45;;;;;;;;;;;;;;;18.07;89.07;100506.03;5433694;32;34127;-83
2023/09/24 06:45:47;;;;;;;;;;;;;;;17.75;88.64;100511.72;5417752;32;33715;-82
2023/09/24 06:48:51;;;;;;;;;;;;;;;18.44;84.84;100514.16;5431962;32;34205;-83
2023/09/24 06:51:54;;;;;;;;;;;;;;;17.96;86.25;100511.22;5431447;32;34243;-82
2023/09/24 06:54:57;;;;;;;;;;;;;;;18.45;84.73;100518.50;5428115;32;35325;-82
2023/09/24 06:57:59;;;;;;;;;;;;;;;18.66;82.01;100524.97;5405731;32;34232;-82
2023/09/24 07:01:02;;;;;;;;;;;;;;;18.11;86.10;100529.66;5430956;32;34249;-83
2023/09/24 07:04:05;;;;;;;;;;;;;;;18.93;82.65;100514.19;5433638;32;34190;-85
2023/09/24 07:07:08;;;;;;;;;;;;;;;18.82;81.42;100525.63;5407996;32;34322;-82
2023/09/24 07:10:10;;;;;;;;;;;;;;;18.56;83.25;100529.25;5413980;32;34274;-82
2023/09/24 07:13:13;;;;;;;;;;;;;;;17.92;88.78;100539.84;5432712;32;33696;-86
2023/09/24 07:16:16;;;;;;;;;;;;;;;18.39;87.46;100533.94;5431616;32;34108;-85
2023/09/24 07:19:18;;;;;;;;;;;;;;;17.94;92.03;100529.94;5419347;32;35468;-84
2023/09/24 07:22:25;;;;;;;;;;;;;;;17.91;91.32;100524.00;5416403;32;34057;-83
2023/09/24 07:25:27;;;;;;;;;;;;;;;17.50;95.27;100535.53;5432171;32;34269;-86
2023/09/24 07:28:29;;;;;;;;;;;;;;;18.38;89.50;100536.72;5432288;32;33972;-80
2023/09/24 07:31:32;;;;;;;;;;;;;;;18.16;89.28;100541.78;5429889;32;35333;-83
2023/09/24 07:34:35;;;;;;;;;;;;;;;17.86;91.79;100534.94;5431650;32;34024;-85
2023/09/24 07:37:38;;;;;;;;;;;;;;;17.85;91.85;100539.41;5430552;32;35193;-85
2023/09/24 07:40:44;;;;;;;;;;;;;;;17.42;95.70;100546.66;5430417;32;36294;-82
2023/09/24 07:43:46;;;;;;;;;;;;;;;17.18;96.19;100543.78;5432018;32;34274;-82
2023/09/24 07:46:49;;;;;;;;;;;;;;;17.27;95.05;100548.50;5416842;32;34808;-82
2023/09/24 07:49:51;;;;;;;;;;;;;;;16.97;97.08;100555.78;5432160;32;34176;-85
2023/09/24 07:52:55;;;;;;;;;;;;;;;17.21;94.98;100556.03;5429370;32;34318;-80
2023/09/24 07:55:57;;;;;;;;;;;;;;;17.11;96.94;100568.16;5432059;32;34531;-81
2023/09/24 07:59:02;;;;;;;;;;;;;;;16.98;96.08;100562.78;5431885;32;34353;-81
2023/09/24 08:02:04;;;;;;;;;;;;;;;17.48;95.15;100577.31;5433943;32;35979;-81
2023/09/24 08:05:07;;;;;;;;;;;;;;;17.17;94.11;100571.28;5431820;32;35369;-83
2023/09/24 08:08:09;;;;;;;;;;;;;;;16.88;95.27;100573.13;5430639;32;34300;-79
2023/09/24 08:11:12;;;;;;;;;;;;;;;17.35;92.19;100576.37;5413675;32;35419;-81
2023/09/24 08:14:14;;;;;;;;;;;;;;;16.85;96.19;100588.38;5416696;32;34180;-81
2023/09/24 08:17:16;;;;;;;;;;;;;;;17.15;93.35;100602.41;5413411;32;35467;-82
2023/09/24 08:20:18;;;;;;;;;;;;;;;17.60;91.15;100595.09;5416219;32;34544;-81
2023/09/24 08:23:21;;;;;;;;;;;;;;;17.38;95.83;100597.44;5432876;32;34243;-82
2023/09/24 08:26:24;;;;;;;;;;;;;;;17.79;91.27;100587.66;5424949;32;35473;-91
2023/09/24 08:29:26;;;;;;;;;;;;;;;17.12;94.56;100591.97;5429553;32;34620;-78
2023/09/24 08:32:28;;;;;;;;;;;;;;;17.06;95.39;100587.03;5430771;32;34103;-80
2023/09/24 08:35:30;;;;;;;;;;;;;;;17.35;92.38;100584.34;5430067;32;34074;-81
2023/09/24 08:38:33;;;;;;;;;;;;;;;17.12;95.90;100599.09;5433118;32;35105;-83
2023/09/24 08:41:42;;;;;;;;;;;;;;;17.39;93.53;100604.44;5430347;32;35233;-81
2023/09/24 08:44:47;;;;;;;;;;;;;;;17.55;90.67;100594.53;5432690;32;35121;-85
2023/09/24 08:47:50;;;;;;;;;;;;;;;17.43;91.48;100598.00;5430235;32;34509;-81
2023/09/24 08:50:52;;;;;;;;;;;;;;;17.13;90.03;100599.00;5430116;32;34209;-81
2023/09/24 08:53:55;;;;;;;;;;;;;;;17.53;89.55;100594.66;5417485;32;34097;-79
2023/09/24 08:56:57;;;;;;;;;;;;;;;17.52;88.04;100600.94;5430243;32;33928;-82
2023/09/24 09:00:00;;;;;;;;;;;;;;;17.48;88.03;100599.41;5432199;32;34166;-81
2023/09/24 09:03:05;;;;;;;;;;;;;;;17.28;89.12;100608.66;5411965;32;33088;-82
2023/09/24 09:06:08;;;;;;;;;;;;;;;17.38;89.21;100603.59;5415324;32;34392;-80
2023/09/24 09:09:11;;;;;;;;;;;;;;;17.75;85.83;100602.09;5417383;32;35788;-80
2023/09/24 09:12:22;;;;;;;;;;;;;;;17.70;88.24;100612.16;5415191;32;35337;-83
2023/09/24 09:15:24;;;;;;;;;;;;;;;17.19;89.97;100609.22;5420441;32;35386;-83
2023/09/24 09:18:27;;;;;;;;;;;;;;;16.64;91.91;100607.31;5427819;32;34113;-82
2023/09/24 09:21:29;;;;;;;;;;;;;;;17.32;89.95;100611.94;5417513;32;34376;-80
2023/09/24 09:24:32;;;;;;;;;;;;;;;17.64;87.15;100615.19;5415681;32;35165;-82
2023/09/24 09:27:39;;;;;;;;;;;;;;;17.23;87.93;100618.72;5430442;32;34091;-82
2023/09/24 09:30:42;;;;;;;;;;;;;;;17.90;85.71;100604.69;5430594;32;34081;-84
2023/09/24 09:33:44;;;;;;;;;;;;;;;17.83;84.06;100613.06;5413989;32;34236;-81
2023/09/24 09:36:47;;;;;;;;;;;;;;;18.14;83.12;100611.91;5420168;32;35785;-81
2023/09/24 09:39:49;;;;;;;;;;;;;;;18.04;83.44;100610.84;5430854;32;33154;-82
2023/09/24 09:42:51;;;;;;;;;;;;;;;17.98;83.45;100613.91;5430997;32;34183;-82
2023/09/24 09:45:54;;;;;;;;;;;;;;;18.09;82.69;100626.47;5429805;32;34123;-81
2023/09/24 09:48:58;;;;;;;;;;;;;;;17.84;83.10;100622.78;5427866;32;35460;-80
2023/09/24 09:52:03;;;;;;;;;;;;;;;17.45;85.28;100631.50;5430390;32;34678;-83
2023/09/24 09:55:06;;;;;;;;;;;;;;;17.47;82.99;100636.72;5428182;32;34138;-82
2023/09/24 09:58:12;;;;;;;;;;;;;;;17.49;82.79;100638.31;5417309;32;33910;-83
2023/09/24 10:01:24;;;;;;;;;;;;;;;17.67;81.96;100643.41;5422520;32;34481;-78
2023/09/24 10:04:26;;;;;;;;;;;;;;;17.80;82.64;100644.34;5412596;32;34306;-80
2023/09/24 10:07:28;;;;;;;;;;;;;;;17.81;80.66;100644.25;5416791;32;33487;-81
2023/09/24 10:10:30;;;;;;;;;;;;;;;17.33;82.28;100641.09;5429169;32;34094;-82
2023/09/24 10:13:46;;;;;;;;;;;;;;;17.77;79.68;100653.34;5410926;32;34753;-82
2023/09/24 10:16:49;;;;;;;;;;;;;;;17.65;84.33;100656.81;5427610;32;32744;-83
2023/09/24 10:19:55;;;;;;;;;;;;;;;17.80;80.30;100654.97;5431013;32;35442;-82
2023/09/24 10:23:19;;;;;;;;;;;;;;;18.06;81.52;100654.13;5412428;32;35461;-81
2023/09/24 10:27:03;;;;;;;;;;;;;;;18.10;81.68;100660.09;5428050;32;33238;-79
2023/09/24 10:30:06;;;;;;;;;;;;;;;18.97;76.47;100659.50;5394229;32;34073;-80
2023/09/24 10:33:09;;;;;;;;;;;;;;;17.98;80.04;100660.91;5430824;32;35409;-82
2023/09/24 10:36:19;;;;;;;;;;;;;;;18.30;79.04;100667.63;5416728;32;34302;-79
2023/09/24 10:39:22;;;;;;;;;;;;;;;18.46;77.89;100661.25;5432746;32;34157;-81
2023/09/24 10:42:24;;;;;;;;;;;;;;;18.32;78.96;100668.34;5416490;32;36481;-81
2023/09/24 10:45:27;;;;;;;;;;;;;;;18.55;75.93;100668.63;5432471;32;34082;-81
2023/09/24 10:48:29;;;;;;;;;;;;;;;18.50;76.99;100668.09;5430983;32;35340;-81
2023/09/24 10:51:56;;;;;;;;;;;;;;;18.88;75.09;100663.69;5414845;32;34112;-79
2023/09/24 10:54:58;;;;;;;;;;;;;;;18.79;74.88;100666.97;5428424;32;35237;-80
2023/09/24 10:58:03;;;;;;;;;;;;;;;18.77;75.42;100670.69;5431395;32;35240;-82
2023/09/24 11:01:05;;;;;;;;;;;;;;;18.56;76.53;100665.00;5433302;32;34227;-79
2023/09/24 11:04:09;;;;;;;;;;;;;;;18.81;76.11;100670.41;5431938;32;35939;-82
2023/09/24 11:07:12;;;;;;;;;;;;;;;18.59;75.49;100664.78;5433857;32;34435;-81
2023/09/24 11:10:18;;;;;;;;;;;;;;;18.62;76.12;100662.78;5430531;32;34210;-84
2023/09/24 11:13:23;;;;;;;;;;;;;;;18.40;76.82;100655.38;5432315;32;34046;-83
2023/09/24 11:16:26;;;;;;;;;;;;;;;18.30;77.37;100658.78;5414525;32;35073;-80
2023/09/24 11:19:44;;;;;;;;;;;;;;;19.04;72.88;100663.44;5416412;32;34458;-80
2023/09/24 11:23:05;;;;;;;;;;;;;;;18.41;76.43;100670.38;5416479;32;33422;-81
2023/09/24 11:26:07;;;;;;;;;;;;;;;18.35;75.94;100681.47;5416513;32;34204;-81
2023/09/24 11:29:10;;;;;;;;;;;;;;;18.57;74.41;100677.34;5433842;32;33705;-79
2023/09/24 11:32:23;;;;;;;;;;;;;;;17.92;77.34;100685.25;5430381;32;35463;-83
2023/09/24 11:35:25;;;;;;;;;;;;;;;18.35;76.05;100673.50;5430658;32;35190;-80
2023/09/24 11:38:28;;;;;;;;;;;;;;;18.22;76.68;100663.75;5432553;32;34667;-79
2023/09/24 11:41:30;;;;;;;;;;;;;;;18.83;72.93;100673.78;5431462;32;34168;-78
2023/09/24 11:44:44;;;;;;;;;;;;;;;18.13;75.08;100671.37;5412192;32;33788;-79
2023/09/24 11:47:47;;;;;;;;;;;;;;;18.99;71.59;100675.38;5427007;32;35200;-83
2023/09/24 11:50:55;;;;;;;;;;;;;;;18.64;72.40;100670.66;5429572;32;32851;-80
2023/09/24 11:53:57;;;;;;;;;;;;;;;18.52;73.27;100671.47;5431541;32;34322;-80
2023/09/24 11:57:00;;;;;;;;;;;;;;;18.10;76.07;100663.63;5410108;32;34158;-86
2023/09/24 12:00:02;;;;;;;;;;;;;;;18.27;72.86;100665.16;5421862;32;34215;-90
2023/09/24 12:03:06;;;;;;;;;;;;;;;18.07;75.65;100653.16;5431780;32;34317;-80
2023/09/24 12:06:08;;;;;;;;;;;;;;;18.50;72.92;100657.44;5418212;32;33160;-77
2023/09/24 12:09:11;;;;;;;;;;;;;;;19.17;71.55;100669.62;5432461;32;35174;-79
2023/09/24 12:12:13;;;;;;;;;;;;;;;18.95;71.06;100685.41;5415099;32;34302;-80
2023/09/24 12:15:17;;;;;;;;;;;;;;;19.29;68.73;100689.22;5412505;32;34549;-79
2023/09/24 12:18:21;;;;;;;;;;;;;;;19.43;67.95;100673.09;5430586;32;34259;-80
2023/09/24 12:21:24;;;;;;;;;;;;;;;18.74;71.52;100693.06;5430601;32;34224;-80
2023/09/24 12:24:26;;;;;;;;;;;;;;;18.56;73.09;100705.78;5430921;32;34653;-79
2023/09/24 12:27:29;;;;;;;;;;;;;;;19.60;68.01;100711.06;5432572;32;35339;-80
2023/09/24 12:30:31;;;;;;;;;;;;;;;19.30;68.89;100712.25;5430934;32;34372;-79
2023/09/24 12:33:33;;;;;;;;;;;;;;;18.70;71.08;100694.22;5430965;32;35356;-79
2023/09/24 12:36:36;;;;;;;;;;;;;;;19.15;68.18;100692.88;5432704;32;34215;-79
2023/09/24 12:39:38;;;;;;;;;;;;;;;19.13;68.04;100684.13;5411099;32;34298;-78
2023/09/24 12:42:41;;;;;;;;;;;;;;;18.60;70.75;100671.81;5409886;32;34144;-81
2023/09/24 12:45:45;;;;;;;;;;;;;;;18.30;73.39;100686.25;5410778;32;34135;-77
2023/09/24 12:48:47;;;;;;;;;;;;;;;18.58;71.73;100693.22;5431939;32;34239;-81
2023/09/24 12:51:50;;;;;;;;;;;;;;;19.00;68.60;100687.72;5429298;32;34275;-78
2023/09/24 12:54:52;;;;;;;;;;;;;;;18.48;70.98;100670.81;5416778;32;35379;-90
2023/09/24 12:57:55;;;;;;;;;;;;;;;18.82;69.58;100673.91;5420275;32;34124;-90
2023/09/24 13:00:57;;;;;;;;;;;;;;;18.12;72.13;100676.81;5431161;32;34109;-79
2023/09/24 13:03:59;;;;;;;;;;;;;;;18.21;71.37;100672.69;5410755;32;34184;-82
2023/09/24 13:07:02;;;;;;;;;;;;;;;18.19;72.09;100675.44;5429710;32;34053;-83
2023/09/24 13:10:05;;;;;;;;;;;;;;;18.30;71.09;100672.94;5430755;32;34426;-78
2023/09/24 13:13:08;;;;;;;;;;;;;;;18.36;72.00;100663.69;5414008;32;34427;-79
2023/09/24 13:16:11;;;;;;;;;;;;;;;18.71;70.13;100663.13;5416143;32;34626;-79
2023/09/24 13:19:13;;;;;;;;;;;;;;;18.19;72.40;100670.13;5431829;32;34240;-78
2023/09/24 13:22:15;;;;;;;;;;;;;;;18.78;69.43;100683.91;5415131;32;34237;-78
2023/09/24 13:25:18;;;;;;;;;;;;;;;18.57;69.90;100674.69;5430789;32;34751;-80
2023/09/24 13:28:21;;;;;;;;;;;;;;;18.92;68.36;100681.13;5426480;32;35361;-79
2023/09/24 13:31:23;;;;;;;;;;;;;;;18.75;69.31;100692.13;5427125;32;34255;-80
2023/09/24 13:34:25;;;;;;;;;;;;;;;18.53;69.27;100705.13;5430022;32;35642;-81
2023/09/24 13:37:28;;;;;;;;;;;;;;;18.53;70.44;100715.78;5415131;32;35044;-79
2023/09/24 13:40:31;;;;;;;;;;;;;;;18.21;71.24;100705.44;5430936;32;34967;-81
2023/09/24 13:43:41;;;;;;;;;;;;;;;18.12;71.38;100720.22;5421915;32;33903;-78
2023/09/24 13:46:44;;;;;;;;;;;;;;;18.00;72.68;100728.13;5404731;32;34268;-81
2023/09/24 13:49:46;;;;;;;;;;;;;;;18.17;71.80;100735.87;5428332;32;34233;-83
2023/09/24 13:52:49;;;;;;;;;;;;;;;18.10;72.14;100738.09;5427323;32;35076;-79
2023/09/24 13:55:51;;;;;;;;;;;;;;;18.31;71.17;100729.66;5430054;32;34468;-82
2023/09/24 13:58:53;;;;;;;;;;;;;;;18.43;71.05;100730.66;5410651;32;34225;-82
2023/09/24 14:02:03;;;;;;;;;;;;;;;18.30;71.34;100742.13;5413360;32;34708;-79
2023/09/24 14:05:06;;;;;;;;;;;;;;;18.08;71.73;100741.78;5426754;32;34456;-78
2023/09/24 14:14:52;;;;;;;;;;;;;;;18.42;71.22;100729.81;5430349;32;35715;-79
2023/09/24 14:17:55;;;;;;;;;;;;;;;18.26;72.17;100710.47;5432536;32;34190;-78
2023/09/24 14:21:16;;;;;;;;;;;;;;;18.43;71.15;100723.53;5424718;32;35048;-79
2023/09/24 14:24:18;;;;;;;;;;;;;;;18.39;71.12;100736.16;5430360;32;34195;-79
2023/09/24 14:27:21;;;;;;;;;;;;;;;18.32;71.83;100739.34;5433588;32;34567;-82
2023/09/24 14:30:23;;;;;;;;;;;;;;;18.71;70.68;100738.53;5431312;32;34760;-77
2023/09/24 14:33:25;;;;;;;;;;;;;;;19.13;69.37;100741.91;5418940;32;33808;-83
2023/09/24 14:36:28;;;;;;;;;;;;;;;18.80;71.07;100742.37;5416387;32;35652;-78
2023/09/24 14:39:31;;;;;;;;;;;;;;;18.53;72.10;100735.25;5433310;32;35773;-79
2023/09/24 14:42:35;;;;;;;;;;;;;;;18.32;71.96;100731.38;5430786;32;34407;-78
2023/09/24 14:45:37;;;;;;;;;;;;;;;18.44;71.52;100733.22;5416438;32;34644;-78
2023/09/24 14:48:40;;;;;;;;;;;;;;;18.52;71.81;100749.53;5432440;32;33835;-80
2023/09/24 14:51:42;;;;;;;;;;;;;;;18.83;70.29;100751.03;5429355;32;34996;-79
2023/09/24 14:54:46;;;;;;;;;;;;;;;18.91;69.71;100754.00;5431550;32;36354;-77
2023/09/24 14:57:48;;;;;;;;;;;;;;;18.78;69.32;100736.31;5416303;32;35348;-81
2023/09/24 15:00:50;;;;;;;;;;;;;;;18.61;69.69;100750.69;5434142;32;35557;-78
2023/09/24 15:03:53;;;;;;;;;;;;;;;18.80;69.52;100761.84;5430978;32;34270;-87
2023/09/24 15:06:55;;;;;;;;;;;;;;;18.73;69.64;100754.41;5430819;32;34400;-84
2023/09/24 15:09:59;;;;;;;;;;;;;;;18.57;70.10;100770.53;5433583;32;34209;-83
2023/09/24 15:13:01;;;;;;;;;;;;;;;18.62;69.54;100777.25;5416577;32;34458;-81
2023/09/24 15:16:04;;;;;;;;;;;;;;;18.29;71.41;100769.69;5432425;32;35184;-79
2023/09/24 15:19:06;;;;;;;;;;;;;;;18.69;69.38;100769.75;5431090;32;34601;-80
2023/09/24 15:22:09;;;;;;;;;;;;;;;18.14;72.26;100755.53;5433024;32;34212;-79
2023/09/24 15:25:11;;;;;;;;;;;;;;;18.60;69.94;100764.97;5429919;32;34693;-80
2023/09/24 15:28:13;;;;;;;;;;;;;;;18.59;70.65;100774.78;5411357;32;34454;-78
2023/09/24 15:31:17;;;;;;;;;;;;;;;18.56;70.19;100782.13;5432766;32;35076;-79
2023/09/24 15:34:19;;;;;;;;;;;;;;;18.83;69.13;100787.44;5430402;32;35543;-79
2023/09/24 15:37:24;;;;;;;;;;;;;;;18.82;69.28;100778.59;5429327;32;34800;-79
2023/09/24 15:40:26;;;;;;;;;;;;;;;18.94;68.83;100779.59;5408036;32;34472;-81
2023/09/24 15:43:29;;;;;;;;;;;;;;;18.57;69.81;100783.81;5431871;32;34818;-81
2023/09/24 15:46:31;;;;;;;;;;;;;;;18.43;69.89;100787.41;5423359;32;34297;-85